Time;durP1;ratioP1;P1;durP2;ratioP2;P2;SDS_P1;SDS_P2;PMS_P1;PMS_P2;Temp;Humidity;BMP_temperature;BMP_pressure;BME280_temperature;BME280_humidity;BME280_pressure;Samples;Min_cycle;Max_cycle;Signal;HPM_P1;HPM_P2
2022/08/30 00:02:22;;;;;;;5.93;4.85;;;19.90;64.10;;;22.88;44.64;97846.09;5004197;28;20359;-41
2022/08/30 00:04:53;;;;;;;11.50;5.63;;;19.90;64.10;;;22.84;44.33;97844.91;5004275;28;20046;-41
2022/08/30 00:07:21;;;;;;;5.10;4.55;;;19.90;64.20;;;22.80;44.65;97847.28;5004652;28;20046;-41
2022/08/30 00:09:49;;;;;;;6.68;4.38;;;19.90;64.30;;;22.80;44.36;97846.47;5004271;28;20041;-41
2022/08/30 00:12:19;;;;;;;6.18;4.70;;;19.90;64.40;;;22.75;44.88;97847.13;5004455;28;20057;-40
2022/08/30 00:14:47;;;;;;;7.35;4.93;;;19.90;64.80;;;22.74;44.93;97845.50;5004204;28;20050;-40
2022/08/30 00:17:15;;;;;;;5.53;4.47;;;19.90;64.90;;;22.75;45.04;97847.13;5004333;28;20099;-40
2022/08/30 00:19:43;;;;;;;8.48;4.97;;;19.90;65.20;;;22.71;44.91;97851.38;5004418;28;20054;-41
2022/08/30 00:22:11;;;;;;;6.18;4.38;;;19.90;65.30;;;22.68;44.70;97856.44;5003927;28;20046;-40
2022/08/30 00:24:39;;;;;;;7.80;5.13;;;19.80;65.40;;;22.65;45.11;97851.50;5004632;28;20133;-40
2022/08/30 00:27:07;;;;;;;7.18;5.18;;;19.80;65.20;;;22.64;44.98;97853.38;5004145;28;20053;-41
2022/08/30 00:29:35;;;;;;;7.38;5.18;;;19.70;65.20;;;22.64;44.98;97856.09;5003813;28;20060;-41
2022/08/30 00:32:04;;;;;;;6.85;5.22;;;19.70;65.20;;;22.60;44.60;97855.75;5003984;28;20042;-41
2022/08/30 00:34:33;;;;;;;8.75;4.90;;;19.70;65.20;;;22.57;44.82;97853.50;5003786;28;20068;-41
2022/08/30 00:37:01;;;;;;;8.02;4.93;;;19.60;65.10;;;22.56;44.84;97859.16;5003970;28;20046;-40
2022/08/30 00:39:29;;;;;;;7.95;4.78;;;19.70;65.30;;;22.53;45.19;97857.75;5002797;28;20052;-41
2022/08/30 00:41:57;;;;;;;6.82;4.82;;;19.70;65.50;;;22.49;44.89;97850.28;5003654;28;20252;-41
2022/08/30 00:44:25;;;;;;;6.28;4.75;;;19.60;65.20;;;22.48;44.85;97860.31;5003764;28;20141;-41
2022/08/30 00:46:52;;;;;;;6.45;4.50;;;19.60;65.60;;;22.46;45.36;97851.59;5004107;28;20070;-40
2022/08/30 00:49:20;;;;;;;7.30;5.28;;;19.60;65.50;;;22.46;45.12;97848.06;5002285;28;20048;-40
2022/08/30 00:51:48;;;;;;;5.60;4.72;;;19.60;65.60;;;22.41;45.13;97848.72;5003721;28;20046;-40
2022/08/30 00:54:17;;;;;;;7.72;5.00;;;19.50;65.60;;;22.37;45.32;97858.38;5003423;28;20336;-40
2022/08/30 00:56:48;;;;;;;5.68;4.55;;;19.50;65.70;;;22.38;45.27;97846.50;5034546;28;20046;-40
2022/08/30 00:59:17;;;;;;;5.93;4.05;;;19.50;66.10;;;22.38;45.37;97855.47;5003374;28;20056;-40
2022/08/30 01:01:45;;;;;;;6.05;4.63;;;19.50;66.10;;;22.36;45.18;97852.16;5003357;28;20057;-40
2022/08/30 01:04:14;;;;;;;7.10;4.80;;;19.50;65.90;;;22.34;45.35;97854.28;5034887;28;20072;-40
2022/08/30 01:06:41;;;;;;;4.72;3.95;;;19.50;65.50;;;22.33;45.08;97854.50;5003157;28;20054;-40
2022/08/30 01:09:10;;;;;;;6.60;4.68;;;19.40;65.50;;;22.32;45.09;97858.28;5003026;28;20048;-40
2022/08/30 01:11:41;;;;;;;6.28;4.90;;;19.40;65.40;;;22.31;45.04;97853.91;5003244;28;20045;-40
2022/08/30 01:14:11;;;;;;;4.88;4.35;;;19.40;65.10;;;22.28;44.45;97851.66;5033309;28;20057;-40
2022/08/30 01:16:42;;;;;;;7.40;4.50;;;19.40;64.70;;;22.27;44.72;97848.09;5034379;28;20046;-40
2022/08/30 01:19:51;;;;;;;8.38;5.20;;;19.40;64.60;;;22.26;44.50;97848.38;5033969;28;20057;-41
2022/08/30 01:22:48;;;;;;;7.75;3.78;;;19.40;64.40;;;22.22;44.32;97842.53;5003083;28;20054;-40
2022/08/30 01:25:21;;;;;;;10.02;4.53;;;19.30;64.40;;;22.19;44.84;97853.84;4997991;28;20058;-41
2022/08/30 01:28:00;;;;;;;4.75;3.92;;;19.20;64.70;;;22.15;45.00;97852.66;5002716;28;20221;-40
2022/08/30 01:30:29;;;;;;;7.05;4.20;;;19.10;65.10;;;22.12;45.04;97859.38;5033380;28;20048;-40
2022/08/30 01:33:04;;;;;;;7.57;5.18;;;19.20;65.30;;;22.11;45.07;97862.31;5003331;28;20052;-41
2022/08/30 01:35:47;;;;;;;7.05;4.28;;;19.20;65.20;;;22.08;44.77;97862.75;5002895;28;20224;-40
2022/08/30 01:38:19;;;;;;;10.55;4.15;;;19.20;65.30;;;22.03;45.01;97860.75;5003482;28;20244;-40
2022/08/30 01:40:48;;;;;;;6.00;4.13;;;19.10;65.60;;;22.00;44.93;97859.31;5003066;28;20244;-40
2022/08/30 01:43:18;;;;;;;5.43;3.88;;;19.00;65.50;;;21.96;45.10;97851.84;5003186;28;20054;-40
2022/08/30 01:45:45;;;;;;;5.25;4.38;;;19.00;65.60;;;21.95;45.49;97859.19;5034199;28;20245;-41
2022/08/30 01:48:13;;;;;;;7.07;5.10;;;19.00;66.00;;;21.93;45.37;97864.00;5001181;28;20255;-40
2022/08/30 01:50:43;;;;;;;7.28;4.60;;;19.00;65.80;;;21.92;45.14;97861.50;5002834;28;20046;-40
2022/08/30 01:53:11;;;;;;;5.35;4.57;;;19.00;66.00;;;21.90;45.40;97861.72;5002644;28;20152;-40
2022/08/30 01:55:40;;;;;;;6.85;4.60;;;18.90;66.30;;;21.89;45.76;97857.38;5003244;28;20046;-40
2022/08/30 01:58:08;;;;;;;4.30;3.88;;;19.00;66.20;;;21.90;45.30;97855.50;5002268;28;20040;-40
2022/08/30 02:00:37;;;;;;;4.70;3.90;;;19.00;66.10;;;21.89;45.59;97854.69;5002599;28;20341;-40
2022/08/30 02:03:06;;;;;;;8.07;4.38;;;19.00;66.10;;;21.88;45.26;97857.59;5002618;28;20064;-40
2022/08/30 02:05:34;;;;;;;6.82;4.60;;;19.00;66.10;;;21.88;45.27;97857.59;5002525;28;20054;-40
2022/08/30 02:08:03;;;;;;;4.88;4.10;;;18.90;66.40;;;21.88;45.57;97849.47;5002923;28;20064;-40
2022/08/30 02:10:31;;;;;;;6.18;4.45;;;18.90;66.20;;;21.87;45.29;97847.81;5003045;28;20051;-40
2022/08/30 02:12:58;;;;;;;4.88;3.78;;;18.90;65.80;;;21.86;45.16;97849.69;5033862;28;20237;-40
2022/08/30 02:15:26;;;;;;;6.97;4.32;;;19.00;65.80;;;21.87;45.38;97847.81;5002529;28;20046;-41
2022/08/30 02:17:54;;;;;;;4.70;4.13;;;19.00;65.80;;;21.86;45.03;97844.28;5002143;28;20042;-40
2022/08/30 02:20:22;;;;;;;5.90;4.55;;;18.90;65.50;;;21.85;44.81;97847.22;5033984;28;20051;-41
2022/08/30 02:22:50;;;;;;;8.48;4.85;;;18.90;65.50;;;21.81;45.23;97846.88;5001840;28;20050;-40
2022/08/30 02:25:17;;;;;;;6.47;3.97;;;18.90;65.80;;;21.81;45.47;97841.44;5002635;28;20042;-40
2022/08/30 02:27:48;;;;;;;6.65;4.32;;;18.90;65.60;;;21.77;45.40;97840.22;5006163;28;20046;-40
2022/08/30 02:30:16;;;;;;;5.78;4.20;;;18.90;65.90;;;21.75;45.65;97840.47;5006272;28;20049;-40
2022/08/30 02:32:43;;;;;;;7.93;4.72;;;18.80;66.20;;;21.76;45.74;97842.13;5005288;28;20031;-40
2022/08/30 02:35:12;;;;;;;7.75;4.22;;;18.90;66.30;;;21.74;45.46;97843.41;5005879;28;20057;-40
2022/08/30 02:37:39;;;;;;;6.13;4.55;;;18.80;66.30;;;21.73;45.51;97844.44;5003813;28;20042;-40
2022/08/30 02:40:08;;;;;;;5.32;4.47;;;18.80;66.40;;;21.73;46.05;97839.88;5006158;28;20244;-41
2022/08/30 02:42:37;;;;;;;5.97;4.07;;;18.80;66.70;;;21.73;45.65;97836.31;5005872;28;20046;-40
2022/08/30 02:45:05;;;;;;;6.25;4.25;;;18.80;66.40;;;21.73;45.63;97839.03;5021403;28;20054;-40
2022/08/30 02:47:33;;;;;;;6.10;4.35;;;18.80;66.40;;;21.74;45.57;97835.28;5006102;28;20054;-40
2022/08/30 02:50:07;;;;;;;7.07;4.50;;;18.80;66.50;;;21.76;45.46;97836.69;5036655;28;20376;-40
2022/08/30 02:52:37;;;;;;;;;;;18.80;66.30;;;21.86;45.29;97833.44;5006504;28;20144;-41
2022/08/30 02:55:08;;;;;;;5.78;4.15;;;18.80;66.00;;;21.79;45.15;97830.84;5005698;28;19939;-40
2022/08/30 02:57:36;;;;;;;9.05;4.35;;;18.70;66.30;;;21.77;45.03;97834.81;5005976;28;20061;-40
2022/08/30 03:00:08;;;;;;;5.70;4.05;;;18.80;65.70;;;21.76;44.81;97828.56;5005508;28;20046;-40
2022/08/30 03:02:36;;;;;;;5.07;4.10;;;18.80;65.40;;;21.77;44.91;97827.53;5036881;28;20072;-40
2022/08/30 03:05:05;;;;;;;7.03;4.38;;;18.80;65.30;;;21.77;45.43;97823.97;5005465;28;20050;-40
2022/08/30 03:07:33;;;;;;;7.60;4.43;;;18.90;65.60;;;21.76;45.28;97828.56;5005814;28;20126;-41
2022/08/30 03:10:01;;;;;;;6.18;4.53;;;18.80;65.50;;;21.72;45.01;97813.81;5005560;28;20042;-40
2022/08/30 03:12:29;;;;;;;7.07;4.80;;;18.80;65.70;;;21.67;45.31;97819.09;5005589;28;20046;-40
2022/08/30 03:14:58;;;;;;;5.60;4.63;;;18.80;65.70;;;21.65;45.35;97818.50;5005225;28;20197;-40
2022/08/30 03:17:26;;;;;;;5.53;4.22;;;18.70;65.60;;;21.62;45.24;97827.09;5005513;28;20241;-40
2022/08/30 03:19:53;;;;;;;7.07;4.70;;;18.70;66.00;;;21.56;45.60;97822.59;5005375;28;20438;-40
2022/08/30 03:22:22;;;;;;;7.95;4.63;;;18.60;66.30;;;21.53;45.14;97813.03;5020358;28;20386;-40
2022/08/30 03:24:49;;;;;;;7.03;4.55;;;18.50;66.10;;;21.53;45.38;97812.19;5005662;28;20252;-41
2022/08/30 03:27:17;;;;;;;8.00;4.93;;;18.50;66.80;;;21.46;45.85;97809.59;5005253;28;20046;-40
2022/08/30 03:29:45;;;;;;;6.97;4.85;;;18.50;67.30;;;21.43;45.91;97804.59;5004485;28;20046;-40
2022/08/30 03:32:13;;;;;;;6.25;4.45;;;18.50;67.60;;;21.42;46.27;97802.91;5005308;28;20050;-40
2022/08/30 03:34:41;;;;;;;5.60;4.30;;;18.50;68.00;;;21.39;46.19;97800.69;5004788;28;20248;-40
2022/08/30 03:37:10;;;;;;;8.60;5.25;;;18.40;68.30;;;21.35;46.64;97808.44;5004650;28;20395;-41
2022/08/30 03:39:39;;;;;;;6.38;4.72;;;18.40;68.80;;;21.30;46.25;97804.75;5004506;28;20042;-40
2022/08/30 03:42:07;;;;;;;7.43;4.85;;;18.40;68.70;;;21.30;46.82;97805.56;5005014;28;20069;-40
2022/08/30 03:44:35;;;;;;;7.85;4.40;;;18.40;68.80;;;21.31;46.49;97809.13;5004871;28;20345;-40
2022/08/30 03:47:06;;;;;;;5.25;4.00;;;18.40;68.80;;;21.30;46.60;97802.84;5004505;28;20061;-40
2022/08/30 03:49:34;;;;;;;5.63;4.75;;;18.40;68.70;;;21.27;46.80;97803.31;5003732;28;20374;-40
2022/08/30 03:52:03;;;;;;;5.80;4.88;;;18.40;69.10;;;21.23;46.43;97804.81;5035742;28;20244;-40
2022/08/30 03:54:31;;;;;;;6.85;4.85;;;18.40;69.10;;;21.22;46.91;97805.88;5036375;28;20056;-40
2022/08/30 03:56:59;;;;;;;5.80;4.22;;;18.30;69.70;;;21.21;47.12;97815.06;5005128;28;20057;-40
2022/08/30 03:59:27;;;;;;;7.10;4.95;;;18.30;69.80;;;21.18;47.07;97812.78;5004410;28;20042;-40
2022/08/30 04:01:55;;;;;;;6.60;4.38;;;18.20;69.70;;;21.12;46.91;97811.81;5004450;28;20058;-40
2022/08/30 04:04:22;;;;;;;8.73;5.15;;;18.20;70.00;;;21.08;47.58;97812.50;5004959;28;20050;-40
2022/08/30 04:06:50;;;;;;;17.52;6.30;;;18.10;70.50;;;21.08;47.35;97810.59;5004433;28;20047;-40
2022/08/30 04:09:18;;;;;;;8.65;5.90;;;18.10;71.20;;;21.07;47.26;97811.63;5004569;28;20076;-40
2022/08/30 04:11:46;;;;;;;6.78;5.75;;;18.20;70.30;;;21.08;47.31;97809.78;5004205;28;20048;-40
2022/08/30 04:14:14;;;;;;;6.70;6.03;;;18.10;70.30;;;21.03;47.29;97811.28;5005476;28;20064;-40
2022/08/30 04:16:42;;;;;;;9.25;5.47;;;18.10;70.60;;;21.02;47.18;97812.31;5004837;28;20056;-40
2022/08/30 04:19:10;;;;;;;7.78;5.65;;;18.10;70.80;;;20.99;47.60;97807.34;5003980;28;20043;-40
2022/08/30 04:21:39;;;;;;;8.48;5.05;;;18.10;70.90;;;20.99;47.31;97803.81;5004120;28;20046;-40
2022/08/30 04:24:12;;;;;;;11.60;7.40;;;18.10;71.00;;;20.99;47.38;97810.06;5004044;28;20064;-40
2022/08/30 04:26:40;;;;;;;7.53;5.20;;;18.10;71.10;;;20.99;47.34;97812.75;5004194;28;20046;-40
2022/08/30 04:29:11;;;;;;;6.85;5.40;;;18.10;71.00;;;20.94;47.56;97815.34;5003834;28;20061;-40
2022/08/30 04:31:38;;;;;;;8.05;5.28;;;18.00;71.20;;;20.96;47.79;97823.22;5003856;28;20050;-40
2022/08/30 04:34:12;;;;;;;6.25;5.55;;;18.00;71.10;;;20.95;47.62;97818.84;5004580;28;20050;-41
2022/08/30 04:36:40;;;;;;;7.15;5.60;;;18.00;70.90;;;20.93;47.23;97820.97;5004035;28;20367;-40
2022/08/30 04:39:08;;;;;;;10.00;6.20;;;18.00;70.80;;;20.89;47.40;97819.75;5035020;28;20050;-41
2022/08/30 04:41:39;;;;;;;7.97;5.95;;;17.90;71.10;;;20.87;47.53;97819.16;5003910;28;20237;-40
2022/08/30 04:44:07;;;;;;;10.45;5.72;;;18.00;71.20;;;20.86;47.54;97815.63;5003536;28;20054;-40
2022/08/30 04:46:40;;;;;;;14.15;5.90;;;18.00;71.20;;;20.85;47.54;97819.38;5003858;28;20050;-40
2022/08/30 04:49:11;;;;;;;11.68;6.10;;;17.90;71.20;;;20.84;47.76;97815.03;5002180;28;20061;-40
2022/08/30 04:51:39;;;;;;;9.98;5.75;;;17.90;71.30;;;20.81;47.79;97827.09;5003827;28;20366;-40
2022/08/30 04:54:07;;;;;;;11.32;6.15;;;17.90;71.30;;;20.80;47.99;97822.75;5003509;28;20073;-41
2022/08/30 04:56:35;;;;;;;8.48;6.03;;;17.90;71.40;;;20.80;47.62;97835.44;5003664;28;20042;-41
2022/08/30 04:59:03;;;;;;;9.65;5.32;;;17.90;71.30;;;20.78;47.68;97841.09;5003470;28;20050;-41
2022/08/30 05:01:32;;;;;;;10.70;5.70;;;17.90;71.20;;;20.76;47.54;97842.34;5003473;28;20052;-40
2022/08/30 05:04:13;;;;;;;9.73;5.72;;;17.80;71.20;;;20.76;47.75;97845.03;5003309;28;20079;-40
2022/08/30 05:06:41;;;;;;;9.65;5.68;;;17.80;71.60;;;20.71;47.78;97855.72;5003786;28;20050;-40
2022/08/30 05:09:10;;;;;;;9.13;5.57;;;17.80;72.00;;;20.71;48.02;97853.84;5002932;28;20053;-40
2022/08/30 05:11:37;;;;;;;9.07;6.53;;;17.80;72.00;;;20.73;47.90;97850.91;5003276;28;20050;-40
2022/08/30 05:14:05;;;;;;;8.35;5.93;;;17.80;72.20;;;20.76;47.77;97855.88;5003158;28;20053;-40
2022/08/30 05:16:33;;;;;;;11.98;6.00;;;17.90;71.80;;;20.77;47.75;97861.06;5003233;28;20042;-40
2022/08/30 05:19:01;;;;;;;8.90;6.05;;;17.90;71.70;;;20.77;48.10;97858.34;5002802;28;20062;-41
2022/08/30 05:21:29;;;;;;;8.55;5.90;;;17.90;72.00;;;20.78;48.21;97851.91;5003804;28;20080;-40
2022/08/30 05:23:59;;;;;;;9.45;5.72;;;17.90;71.80;;;20.81;48.33;97851.44;5003529;28;20054;-40
2022/08/30 05:26:32;;;;;;;8.27;5.45;;;18.00;71.80;;;20.86;48.10;97853.50;5003042;28;20053;-40
2022/08/30 05:29:00;;;;;;;7.20;5.18;;;18.00;71.80;;;20.88;48.05;97856.81;5002636;28;20244;-40
2022/08/30 05:31:33;;;;;;;8.35;6.25;;;18.10;71.70;;;20.88;48.18;97853.25;5003480;28;20056;-40
2022/08/30 05:34:02;;;;;;;11.73;6.00;;;18.00;72.00;;;20.89;48.05;97847.63;5002743;28;20048;-40
2022/08/30 05:36:34;;;;;;;9.70;6.10;;;18.00;71.90;;;20.92;48.58;97846.34;5002884;28;20049;-40
2022/08/30 05:39:04;;;;;;;8.60;5.95;;;18.10;72.20;;;20.94;48.42;97847.81;5015280;28;20061;-40
2022/08/30 05:41:32;;;;;;;8.95;6.57;;;18.10;72.10;;;20.97;48.46;97850.03;5002949;28;20053;-41
2022/08/30 05:44:03;;;;;;;8.98;5.90;;;18.20;72.10;;;21.01;48.06;97845.88;5002761;28;20046;-40
2022/08/30 05:46:32;;;;;;;10.98;6.88;;;18.30;71.80;;;21.05;48.54;97846.22;5033989;28;20050;-40
2022/08/30 05:49:04;;;;;;;13.45;6.97;;;18.30;71.50;;;21.09;48.59;97850.13;5002506;28;20050;-40
2022/08/30 05:51:36;;;;;;;11.73;6.10;;;18.40;71.50;;;21.16;48.60;97847.38;5003217;28;20056;-40
2022/08/30 05:54:12;;;;;;;6.95;5.78;;;18.40;71.50;;;21.20;48.64;97843.16;5001517;28;20052;-40
2022/08/30 05:56:44;;;;;;;9.50;6.30;;;18.40;71.70;;;21.24;48.86;97845.19;5002686;28;20052;-40
2022/08/30 05:59:13;;;;;;;10.98;6.95;;;18.50;72.20;;;21.30;48.37;97857.00;5002340;28;20048;-40
2022/08/30 06:01:45;;;;;;;13.48;7.32;;;18.60;72.10;;;21.36;48.32;97857.97;5002829;28;20245;-40
2022/08/30 06:04:13;;;;;;;13.05;7.53;;;18.70;72.00;;;21.41;48.51;97864.38;5002786;28;20056;-40
2022/08/30 06:06:43;;;;;;;10.82;6.90;;;18.80;71.90;;;21.49;48.74;97870.59;5002586;28;20253;-40
2022/08/30 06:09:13;;;;;;;8.93;6.25;;;18.80;71.70;;;21.53;48.45;97863.66;5002679;28;20379;-40
2022/08/30 06:11:42;;;;;;;8.18;6.32;;;18.90;72.10;;;21.60;48.39;97873.38;5002415;28;20039;-40
2022/08/30 06:14:10;;;;;;;8.82;7.57;;;18.90;71.70;;;21.67;48.39;97875.16;5002638;28;20129;-40
2022/08/30 06:16:40;;;;;;;8.30;6.03;;;18.90;71.20;;;21.71;47.92;97871.75;5002512;28;20047;-40
2022/08/30 06:19:09;;;;;;;8.20;6.85;;;19.00;70.70;;;21.75;48.12;97866.72;5002202;28;20047;-40
2022/08/30 06:21:39;;;;;;;10.75;6.10;;;19.00;70.50;;;21.82;47.92;97864.75;5002458;28;20135;-40
2022/08/30 06:24:09;;;;;;;8.73;6.82;;;19.10;70.50;;;21.91;47.99;97868.00;5003420;28;20050;-40
2022/08/30 06:26:47;;;;;;;7.35;6.53;;;19.20;70.80;;;21.96;48.02;97865.41;5033529;28;20064;-40
2022/08/30 06:29:18;;;;;;;9.13;6.57;;;19.20;70.70;;;22.02;48.39;97861.78;5001974;28;20218;-40
2022/08/30 06:31:47;;;;;;;9.15;6.25;;;19.30;71.20;;;22.04;48.74;97851.53;5002392;28;20038;-41
2022/08/30 06:34:16;;;;;;;10.65;7.57;;;19.30;71.60;;;22.11;48.46;97865.00;5002045;28;20057;-40
2022/08/30 06:36:44;;;;;;;8.98;7.78;;;19.40;72.00;;;22.16;48.48;97863.28;5002493;28;20056;-42
2022/08/30 06:39:12;;;;;;;11.85;7.70;;;19.50;71.90;;;22.23;48.71;97871.28;5002073;28;20337;-41
2022/08/30 06:41:41;;;;;;;10.15;7.10;;;19.60;71.80;;;22.27;48.44;97866.28;5002954;28;20054;-40
2022/08/30 06:44:23;;;;;;;11.75;7.22;;;19.60;71.90;;;22.38;48.55;97860.88;5002256;28;20142;-40
2022/08/30 06:46:51;;;;;;;9.60;8.38;;;19.70;72.30;;;22.42;48.33;97864.78;5001010;28;20056;-41
2022/08/30 06:49:20;;;;;;;11.90;8.63;;;19.70;72.10;;;22.49;48.59;97863.84;5002047;28;20085;-41
2022/08/30 06:51:47;;;;;;;12.25;7.28;;;19.70;72.10;;;22.50;48.66;97866.34;5002213;28;20046;-40
2022/08/30 06:54:16;;;;;;;16.02;8.73;;;19.70;72.10;;;22.51;48.25;97861.75;5000968;28;20046;-40
2022/08/30 06:56:43;;;;;;;12.40;8.70;;;19.70;72.10;;;22.53;48.13;97865.06;5002443;28;20249;-40
2022/08/30 06:59:27;;;;;;;18.92;9.52;;;19.70;72.20;;;22.56;48.09;97870.00;5001816;28;20364;-40
2022/08/30 07:01:56;;;;;;;17.52;8.35;;;19.70;72.30;;;22.54;48.90;97874.84;5002751;28;20054;-41
2022/08/30 07:04:24;;;;;;;26.73;9.90;;;19.70;73.00;;;22.52;49.05;97872.34;5002037;28;20057;-41
2022/08/30 07:06:52;;;;;;;22.58;10.82;;;19.70;73.50;;;22.53;48.70;97874.00;5001945;28;20047;-40
2022/08/30 07:09:20;;;;;;;25.10;9.55;;;19.70;73.70;;;22.57;49.13;97874.38;5001874;28;20218;-40
2022/08/30 07:11:51;;;;;;;20.58;10.23;;;19.80;73.70;;;22.62;48.97;97879.91;5001860;28;20098;-41
2022/08/30 07:14:20;;;;;;;18.08;8.90;;;19.80;73.70;;;22.64;49.15;97883.22;5005126;28;20046;-40
2022/08/30 07:16:48;;;;;;;22.33;9.82;;;19.90;73.90;;;22.69;48.87;97874.41;5006153;28;20252;-40
2022/08/30 07:19:19;;;;;;;15.60;8.45;;;20.00;73.80;;;22.78;49.11;97881.16;5005634;28;20050;-41
2022/08/30 07:21:49;;;;;;;10.85;8.18;;;20.10;73.70;;;22.83;49.26;97878.53;5005340;28;20046;-41
2022/08/30 07:24:18;;;;;;;14.02;9.02;;;20.10;73.80;;;22.87;48.95;97874.28;5005134;28;20050;-40
2022/08/30 07:26:50;;;;;;;10.60;8.60;;;20.20;73.50;;;22.96;48.97;97874.78;5005129;28;20050;-40
2022/08/30 07:29:20;;;;;;;12.85;8.45;;;20.20;73.20;;;23.02;48.65;97875.72;5004693;28;20038;-40
2022/08/30 07:31:48;;;;;;;11.35;9.38;;;20.30;73.00;;;23.06;48.73;97872.31;5005429;28;20232;-40
2022/08/30 07:34:17;;;;;;;16.17;9.70;;;20.40;72.90;;;23.11;48.88;97871.59;5006517;28;20058;-41
2022/08/30 07:36:48;;;;;;;10.40;8.35;;;20.40;72.50;;;23.15;48.66;97881.78;5004962;28;20042;-40
2022/08/30 07:39:16;;;;;;;11.55;8.20;;;20.50;72.80;;;23.18;48.83;97875.03;5005579;28;20050;-41
2022/08/30 07:41:44;;;;;;;15.77;8.77;;;20.50;73.30;;;23.21;48.54;97884.63;5005026;28;20046;-40
2022/08/30 07:44:13;;;;;;;11.95;8.52;;;20.60;72.60;;;23.23;48.74;97882.50;5004789;28;20057;-40
2022/08/30 07:46:42;;;;;;;13.30;7.97;;;20.60;72.70;;;23.27;48.59;97873.63;5005167;28;20056;-40
2022/08/30 07:49:11;;;;;;;9.73;8.15;;;20.60;72.70;;;23.30;48.84;97877.75;5004391;28;20359;-41
2022/08/30 07:51:40;;;;;;;10.18;8.20;;;20.60;72.30;;;23.30;48.56;97877.75;5005081;28;20391;-40
2022/08/30 07:54:08;;;;;;;9.93;8.40;;;20.70;73.00;;;23.34;48.25;97876.19;5003447;28;20056;-41
2022/08/30 07:56:36;;;;;;;14.98;8.90;;;20.70;71.70;;;23.38;47.99;97877.41;5004808;28;20060;-41
2022/08/30 07:59:04;;;;;;;9.63;7.72;;;20.70;71.50;;;23.42;48.29;97873.16;5004467;28;20060;-41
2022/08/30 08:01:32;;;;;;;10.63;8.30;;;20.80;71.30;;;23.45;48.28;97874.56;5005108;28;20046;-41
2022/08/30 08:04:00;;;;;;;11.10;9.30;;;20.80;71.30;;;23.49;48.24;97884.69;5005471;28;20256;-41
2022/08/30 08:06:28;;;;;;;9.93;8.50;;;20.90;71.40;;;23.55;48.04;97877.47;5004529;28;20100;-40
2022/08/30 08:09:02;;;;;;;10.50;7.75;;;20.90;71.10;;;23.61;48.25;97879.22;5004369;28;20054;-41
2022/08/30 08:11:31;;;;;;;10.93;8.13;;;21.00;70.90;;;23.67;48.21;97875.56;5003912;28;20054;-41
2022/08/30 08:14:02;;;;;;;9.90;8.30;;;21.10;70.80;;;23.74;48.14;97880.88;5004082;28;20049;-41
2022/08/30 08:16:33;;;;;;;14.95;7.70;;;21.20;70.60;;;23.81;48.05;97883.47;5003338;28;20065;-40
2022/08/30 08:19:01;;;;;;;14.07;9.30;;;21.20;70.20;;;23.86;47.63;97884.41;5004027;28;20050;-41
2022/08/30 08:21:29;;;;;;;10.52;7.93;;;21.30;70.50;;;23.91;47.54;97878.25;5004450;28;20050;-40
2022/08/30 08:23:57;;;;;;;12.55;7.95;;;21.40;69.50;;;24.00;47.97;97876.81;5003343;28;20050;-40
2022/08/30 08:26:25;;;;;;;10.90;7.68;;;21.50;69.30;;;24.11;47.50;97884.06;5004164;28;20375;-41
2022/08/30 08:28:53;;;;;;;9.02;6.95;;;21.60;68.90;;;24.21;47.48;97883.44;5003659;28;20072;-40
2022/08/30 08:31:25;;;;;;;9.63;7.68;;;21.70;68.70;;;24.33;47.13;97884.22;5004438;28;20252;-41
2022/08/30 08:34:04;;;;;;;11.55;7.68;;;21.80;68.10;;;24.47;46.90;97884.75;5003720;28;20045;-42
2022/08/30 08:36:34;;;;;;;9.40;7.15;;;22.00;67.80;;;24.57;46.64;97886.84;5004168;28;20056;-41
2022/08/30 08:39:04;;;;;;;8.20;6.85;;;22.10;67.40;;;24.67;46.44;97878.84;5000898;28;20054;-41
2022/08/30 08:41:54;;;;;;;12.50;8.45;;;22.20;66.80;;;24.75;46.38;97875.72;5003099;28;20046;-41
2022/08/30 08:44:54;;;;;;;12.70;7.03;;;22.30;65.30;;;24.81;46.15;97871.19;5003495;28;20252;-41
2022/08/30 08:47:57;;;;;;;7.60;6.68;;;22.30;65.20;;;24.89;46.13;97867.22;5032621;28;20252;-41
2022/08/30 08:50:28;;;;;;;10.48;7.72;;;22.30;65.40;;;24.92;45.69;97870.28;5029650;28;20252;-41
2022/08/30 08:56:16;;;;;;;8.30;6.53;;;22.50;65.00;;;25.06;45.52;97878.94;5003610;28;20297;-41
2022/08/30 08:58:50;;;;;;;7.53;6.43;;;22.50;65.00;;;25.10;45.22;97869.19;5003130;28;20348;-40
2022/08/30 09:01:22;;;;;;;8.10;6.13;;;22.60;64.50;;;25.19;45.73;97871.50;5004095;28;20054;-41
2022/08/30 09:03:51;;;;;;;11.27;6.93;;;22.70;64.90;;;25.26;45.50;97867.56;5004631;28;20348;-41
2022/08/30 09:07:00;;;;;;;7.38;6.57;;;22.80;64.60;;;25.34;45.39;97866.31;5003409;28;20340;-40
2022/08/30 09:09:33;;;;;;;11.30;6.72;;;22.90;63.70;;;25.44;44.94;97871.06;5002157;28;20356;-42
2022/08/30 09:12:01;;;;;;;;;;;23.00;63.40;;;25.62;45.14;97861.75;5003796;28;20244;-41
2022/08/30 09:14:39;;;;;;;7.47;6.45;;;23.00;62.20;;;25.60;44.76;97861.19;5003065;28;19918;-41
2022/08/30 09:17:15;;;;;;;9.38;6.10;;;23.00;63.10;;;25.60;44.58;97858.47;5004713;28;20417;-41
2022/08/30 09:19:59;;;;;;;7.55;5.88;;;23.10;63.50;;;25.63;44.86;97863.38;5034971;28;20277;-41
2022/08/30 09:22:41;;;;;;;7.82;6.78;;;23.10;62.40;;;25.68;44.65;97863.47;5003167;28;20046;-41
2022/08/30 09:25:13;;;;;;;6.80;5.95;;;23.20;62.40;;;25.71;44.27;97863.78;5003466;28;20375;-41
2022/08/30 09:27:47;;;;;;;9.10;6.00;;;23.20;62.70;;;25.76;44.60;97859.47;5003154;28;20052;-41
2022/08/30 09:30:24;;;;;;;8.38;6.72;;;23.30;62.30;;;25.82;44.28;97847.53;5002911;28;20050;-41
2022/08/30 09:33:01;;;;;;;7.75;6.95;;;23.30;62.40;;;25.87;44.41;97848.44;5002995;28;20328;-41
2022/08/30 09:35:46;;;;;;;11.18;6.40;;;23.40;62.10;;;25.92;44.29;97840.34;5001997;28;20042;-41
2022/08/30 09:38:32;;;;;;;7.07;5.97;;;23.50;61.00;;;26.01;43.81;97846.16;5002068;28;20053;-41
2022/08/30 09:41:38;;;;;;;8.57;6.15;;;23.50;61.20;;;26.07;43.97;97842.38;5002990;28;20046;-40
2022/08/30 09:44:16;;;;;;;10.00;6.07;;;23.60;60.90;;;26.15;43.56;97835.66;5002826;28;20391;-41
2022/08/30 09:46:57;;;;;;;9.00;5.13;;;23.60;60.50;;;26.20;43.82;97832.16;5034371;28;20050;-41
2022/08/30 09:49:30;;;;;;;9.05;6.03;;;23.70;60.40;;;26.22;43.47;97830.81;5002459;28;20056;-41
2022/08/30 09:52:04;;;;;;;;;;;23.80;60.50;;;26.43;43.47;97834.56;5004070;28;20050;-41
2022/08/30 09:54:45;;;;;;;9.85;5.30;;;23.80;60.10;;;26.42;42.80;97826.63;5001376;28;19917;-41
2022/08/30 09:57:30;;;;;;;12.52;5.95;;;23.80;59.90;;;26.39;43.42;97827.97;5003128;28;20054;-41
2022/08/30 10:00:20;;;;;;;12.63;5.10;;;23.90;59.70;;;26.44;42.71;97819.81;5002622;28;20046;-41
2022/08/30 10:03:20;;;;;;;9.43;5.93;;;23.90;59.40;;;26.48;42.92;97820.97;5032533;28;20068;-41
2022/08/30 10:06:17;;;;;;;9.10;6.10;;;24.00;59.20;;;26.58;42.45;97820.25;5002543;28;20058;-41
2022/08/30 10:09:05;;;;;;;7.05;5.10;;;24.00;58.50;;;26.63;42.58;97814.00;5033688;28;20248;-41
2022/08/30 10:12:03;;;;;;;6.65;5.03;;;24.20;58.20;;;26.72;42.33;97817.91;5033098;28;20058;-42
2022/08/30 10:14:44;;;;;;;6.30;5.70;;;24.20;56.80;;;26.80;41.69;97828.34;5002740;28;20059;-42
2022/08/30 10:17:43;;;;;;;8.20;5.25;;;24.30;55.90;;;26.85;41.46;97812.00;5002576;28;20050;-42
2022/08/30 10:20:34;;;;;;;10.05;6.03;;;24.40;56.30;;;26.94;41.41;97817.78;5002737;28;20055;-39
2022/08/30 10:23:18;;;;;;;13.63;6.18;;;24.40;56.10;;;27.01;41.15;97812.94;5002434;28;20046;-42
2022/08/30 10:26:34;;;;;;;7.25;5.32;;;24.60;55.40;;;27.11;40.69;97804.78;5032177;28;20222;-42
2022/08/30 10:29:41;;;;;;;5.20;4.70;;;24.60;53.60;;;27.20;40.78;97794.19;5001137;28;20058;-42
2022/08/30 10:32:44;;;;;;;6.32;5.22;;;24.70;53.80;;;27.27;40.22;97791.22;5031292;28;20225;-40
2022/08/30 10:35:20;;;;;;;6.35;5.15;;;24.80;53.40;;;27.32;39.41;97794.00;5031429;28;20064;-39
2022/08/30 10:38:14;;;;;;;7.97;5.47;;;24.90;53.30;;;27.41;39.96;97786.09;5002164;28;20443;-41
2022/08/30 10:43:58;;;;;;;6.10;5.35;;;25.10;54.30;;;27.57;39.70;97779.63;5028196;28;20054;-42
2022/08/30 10:46:52;;;;;;;7.25;5.80;;;25.20;54.10;;;27.62;39.30;97776.06;5003025;28;20054;-42